Sunday, February 7, 2016, 7:51 AM EST

KESN, Easton / Newman Field

Location: Easton, MD, United States Lat: 38.8
Local Time: 7:51 AM EST (12:51 GMT) Lon: -76.067
Time Zone: US/Eastern Elev: 72 ft

Show me the last for .
Show Decoded

2016-02-07 06:45 METAR KESN 071145Z 00000KT 10SM SCT250 M02/M02 A3022 =
2016-02-07 05:45 METAR KESN 071045Z 00000KT 10SM SKC M02/M02 A3024 =
2016-02-07 05:37 METAR KESN 071037Z AUTO 00000KT 10SM CLR M02/M02 A3024 RMK AO2 T10201020 =
2016-02-07 05:25 METAR KESN 071025Z AUTO 00000KT 10SM CLR M02/M02 A3025 RMK AO2 T10191019 =
2016-02-07 05:05 METAR KESN 071005Z AUTO 00000KT 10SM CLR M02/M02 A3026 RMK AO2 T10171017 =
2016-02-07 04:45 METAR KESN 070945Z AUTO 00000KT 10SM CLR M02/M02 A3025 RMK AO2 T10161016 =
2016-02-07 04:25 METAR KESN 070925Z AUTO 00000KT 10SM CLR M02/M02 A3025 RMK AO2 T10201020 =
2016-02-07 04:05 METAR KESN 070905Z AUTO 00000KT 10SM CLR M02/M02 A3025 =
2016-02-07 03:45 METAR KESN 070845Z AUTO 00000KT 10SM CLR M02/M02 A3025 RMK AO2 T10211021 =
2016-02-07 03:25 METAR KESN 070825Z AUTO 00000KT 10SM CLR M02/M03 A3025 RMK AO2 T10181027 =
2016-02-07 03:05 METAR KESN 070805Z AUTO 00000KT 10SM CLR M01/M01 A3027 RMK AO2 T10111015 =
2016-02-07 02:45 METAR KESN 070745Z AUTO 00000KT 10SM CLR M01/M02 A3027 RMK AO2 T10131025 =
2016-02-07 02:25 METAR KESN 070725Z AUTO 00000KT 10SM CLR M01/M02 A3029 RMK AO2 T10101020 =
2016-02-07 02:05 METAR KESN 070705Z AUTO 00000KT 10SM CLR M01/M03 A3029 RMK AO2 T10071026 =
2016-02-07 01:45 METAR KESN 070645Z AUTO 00000KT 10SM CLR M01/M03 A3029 RMK AO2 T10071028 =
2016-02-07 01:24 METAR KESN 070624Z AUTO 00000KT 10SM CLR M01/M03 A3029 RMK AO2 T10071028 =
2016-02-07 01:04 METAR KESN 070604Z AUTO 00000KT 10SM CLR M01/M03 A3029 RMK AO2 T10061031 =
2016-02-07 00:44 METAR KESN 070544Z AUTO 00000KT 10SM CLR M01/M03 A3030 RMK AO2 T10071032 =
2016-02-07 00:24 METAR KESN 070524Z AUTO 00000KT 10SM CLR M01/M03 A3031 RMK AO2 T10081034 =
2016-02-07 00:04 METAR KESN 070504Z AUTO 00000KT 10SM CLR M01/M03 A3031 RMK AO2 T10131032 =
2016-02-06 23:44 METAR KESN 070444Z AUTO 00000KT 10SM CLR M01/M03 A3030 RMK AO2 T10071034 =
2016-02-06 23:24 METAR KESN 070424Z AUTO 00000KT 10SM CLR 00/M04 A3032 RMK AO2 T10031037 =
2016-02-06 23:04 METAR KESN 070404Z AUTO 00000KT 10SM CLR 00/M04 A3032 RMK AO2 T00001036 =
2016-02-06 22:44 METAR KESN 070344Z AUTO 00000KT 10SM CLR 00/M04 A3033 RMK AO2 T00021037 =
2016-02-06 22:24 METAR KESN 070324Z AUTO 00000KT 10SM CLR 00/M04 A3034 RMK AO2 T00031039 =
2016-02-06 22:04 METAR KESN 070304Z AUTO 00000KT 10SM CLR 01/M04 A3035 RMK AO2 T00051039 =
2016-02-06 21:44 METAR KESN 070244Z AUTO 00000KT 10SM CLR 01/M04 A3036 RMK AO2 T00091039 =
2016-02-06 20:50 METAR KESN 070150Z 00000KT 10SM BKN200 00/M04 A3037 =
2016-02-06 16:50 METAR KESN 062150Z 25007KT 10SM BKN200 05/M07 A3035 =
2016-02-06 15:50 METAR KESN 062050Z 25007KT 10SM BKN200 06/M06 A3036 =
2016-02-06 14:50 METAR KESN 061950Z 21007KT 10SM BKN200 06/M06 A3037 =
2016-02-06 13:45 METAR KESN 061845Z 00000KT 10SM BKN200 05/M06 A3040 =
2016-02-06 12:45 METAR KESN 061745Z 00000KT 10SM BKN200 05/M06 A3044 =
2016-02-06 11:50 METAR KESN 061650Z 00000KT 10SM BKN200 04/M06 A3048 =
2016-02-06 10:50 METAR KESN 061550Z 00000KT 10SM BKN200 04/M06 A3051 =
2016-02-06 09:50 METAR KESN 061450Z 00000KT 10SM BKN200 03/M04 A3051 =
2016-02-06 08:50 METAR KESN 061350Z 00000KT 10SM BKN200 00/M02 A3050 =

Support USWX by starting your Amazon purchase here.